createdAt,value
2018-11-23T00:00:22.957Z,28.77
2018-11-23T00:02:52.130Z,26.90
2018-11-23T00:05:21.122Z,29.65
2018-11-23T00:07:50.233Z,28.55
2018-11-23T00:10:20.168Z,29.15
2018-11-23T00:12:49.118Z,28.30
2018-11-23T00:15:19.057Z,28.00
2018-11-23T00:17:47.903Z,28.87
2018-11-23T00:20:21.855Z,28.40
2018-11-23T00:22:50.645Z,28.80
2018-11-23T00:25:20.551Z,28.62
2018-11-23T00:27:49.687Z,29.42
2018-11-23T00:30:20.060Z,29.02
2018-11-23T00:32:49.277Z,28.50
2018-11-23T00:35:20.662Z,28.85
2018-11-23T00:37:49.865Z,27.82
2018-11-23T00:40:23.708Z,27.82
2018-11-23T00:42:52.773Z,29.17
2018-11-23T00:45:21.726Z,28.92
2018-11-23T00:47:51.105Z,29.37
2018-11-23T00:50:21.038Z,30.05
2018-11-23T00:52:50.334Z,28.67
2018-11-23T00:55:20.022Z,30.00
2018-11-23T00:57:48.800Z,30.25
2018-11-23T01:00:24.030Z,30.27
2018-11-23T01:02:53.274Z,30.85
2018-11-23T01:05:22.091Z,32.65
2018-11-23T01:07:50.884Z,32.25
2018-11-23T01:10:20.861Z,31.97
2018-11-23T01:12:50.453Z,32.05
2018-11-23T01:15:19.256Z,30.88
2018-11-23T01:17:48.031Z,31.63
2018-11-23T01:20:18.289Z,30.72
2018-11-23T01:22:47.440Z,31.42
2018-11-23T01:25:17.394Z,30.55
2018-11-23T01:27:47.297Z,30.70
2018-11-23T01:30:20.386Z,31.65
2018-11-23T01:32:49.181Z,32.05
2018-11-23T01:35:17.966Z,29.98
2018-11-23T01:37:46.757Z,31.02
2018-11-23T01:40:24.314Z,31.23
2018-11-23T01:42:53.643Z,32.33
2018-11-23T01:45:22.454Z,32.93
2018-11-23T01:47:51.288Z,30.15
2018-11-23T01:50:21.441Z,30.50
2018-11-23T01:52:50.853Z,30.43
2018-11-23T01:55:20.584Z,29.85
2018-11-23T01:57:49.425Z,29.90
2018-11-23T02:00:25.625Z,30.07
2018-11-23T02:02:55.011Z,30.27
2018-11-23T02:05:23.840Z,29.80
2018-11-23T02:07:52.628Z,29.52
2018-11-23T02:10:21.393Z,28.60
2018-11-23T02:12:50.250Z,28.60
2018-11-23T02:15:20.117Z,29.72
2018-11-23T02:17:49.400Z,29.15
2018-11-23T02:20:19.190Z,29.80
2018-11-23T02:22:47.945Z,32.63
2018-11-23T02:25:16.712Z,31.80
2018-11-23T02:27:45.498Z,31.15
2018-11-23T02:30:16.538Z,31.52
2018-11-23T02:32:45.505Z,30.70
2018-11-23T02:35:14.999Z,31.05
2018-11-23T02:37:43.833Z,31.60
2018-11-23T02:40:13.849Z,30.68
2018-11-23T02:42:42.653Z,30.80
2018-11-23T02:45:16.465Z,31.40
2018-11-23T02:47:45.884Z,29.77
2018-11-23T02:50:14.703Z,29.40
2018-11-23T02:52:43.897Z,29.40
2018-11-23T02:55:13.924Z,29.52
2018-11-23T02:57:42.742Z,29.87
2018-11-23T03:00:15.066Z,28.65
2018-11-23T03:02:44.045Z,28.12
2018-11-23T03:05:14.808Z,28.93
2018-11-23T03:07:43.792Z,28.40
2018-11-23T03:10:13.737Z,28.47
2018-11-23T03:12:43.098Z,28.97
2018-11-23T03:15:13.955Z,29.05
2018-11-23T03:17:43.445Z,29.18
2018-11-23T03:20:14.602Z,29.80
2018-11-23T03:22:43.392Z,29.87
2018-11-23T03:25:12.611Z,29.37
2018-11-23T03:27:41.369Z,29.15
2018-11-23T03:30:12.381Z,28.62
2018-11-23T03:32:41.153Z,30.88
2018-11-23T03:35:09.970Z,30.12
2018-11-23T03:37:38.984Z,30.12
2018-11-23T03:40:07.767Z,29.50
2018-11-23T03:42:36.533Z,30.45
2018-11-23T03:45:06.647Z,29.42
2018-11-23T03:47:35.405Z,30.65
2018-11-23T03:50:04.308Z,29.92
2018-11-23T03:52:33.110Z,29.40
2018-11-23T03:55:01.905Z,30.37
2018-11-23T03:57:30.741Z,30.15
2018-11-23T03:59:59.556Z,30.05
2018-11-23T04:02:28.364Z,30.37
2018-11-23T04:04:57.613Z,30.40
2018-11-23T04:07:26.397Z,30.57
2018-11-23T04:09:55.293Z,30.32
2018-11-23T04:12:24.085Z,31.10
2018-11-23T04:14:52.867Z,30.95
2018-11-23T04:17:21.633Z,30.97
2018-11-23T04:19:50.459Z,31.30
2018-11-23T04:22:19.296Z,31.37
2018-11-23T04:24:48.036Z,31.73
2018-11-23T04:27:16.837Z,32.25
2018-11-23T04:29:45.610Z,29.52
2018-11-23T04:32:14.388Z,31.57
2018-11-23T04:34:43.155Z,29.50
2018-11-23T04:37:12.024Z,30.32
2018-11-23T04:39:40.818Z,30.77
2018-11-23T04:42:09.586Z,30.97
2018-11-23T04:44:38.433Z,30.85
2018-11-23T04:47:07.238Z,30.37
2018-11-23T04:49:36.059Z,30.68
2018-11-23T04:52:04.893Z,31.12
2018-11-23T04:54:33.704Z,30.23
2018-11-23T04:57:02.782Z,30.10
2018-11-23T04:59:32.109Z,30.77
2018-11-23T05:02:00.896Z,31.40
2018-11-23T05:04:29.702Z,31.73
2018-11-23T05:06:58.463Z,31.40
2018-11-23T05:09:27.220Z,29.70
2018-11-23T05:11:56.028Z,30.20
2018-11-23T05:14:24.813Z,29.65
2018-11-23T05:16:53.633Z,30.97
2018-11-23T05:19:22.421Z,30.23
2018-11-23T05:21:51.209Z,29.23
2018-11-23T05:24:19.992Z,30.82
2018-11-23T05:26:48.854Z,29.23
2018-11-23T05:29:17.633Z,30.45
2018-11-23T05:31:46.421Z,31.33
2018-11-23T05:34:15.197Z,30.97
2018-11-23T05:36:43.986Z,32.48
2018-11-23T05:39:12.770Z,32.45
2018-11-23T05:41:41.605Z,34.23
2018-11-23T05:44:10.409Z,34.85
2018-11-23T05:46:42.425Z,35.28
2018-11-23T05:49:11.346Z,31.85
2018-11-23T05:51:40.130Z,32.60
2018-11-23T05:54:08.912Z,31.90
2018-11-23T05:56:37.690Z,31.62
2018-11-23T05:59:06.467Z,32.33
2018-11-23T06:01:35.272Z,30.43
2018-11-23T06:04:04.106Z,31.13
2018-11-23T06:06:32.919Z,31.27
2018-11-23T06:09:01.677Z,30.95
2018-11-23T06:11:30.445Z,31.95
2018-11-23T06:13:59.308Z,31.75
2018-11-23T06:16:28.100Z,31.75
2018-11-23T06:18:56.877Z,32.15
2018-11-23T06:21:25.653Z,31.48
2018-11-23T06:23:54.753Z,31.45
2018-11-23T06:26:25.437Z,31.90
2018-11-23T06:28:54.197Z,32.85
2018-11-23T06:31:22.994Z,32.60
2018-11-23T06:33:51.773Z,32.03
2018-11-23T06:36:20.552Z,31.50
2018-11-23T06:38:49.311Z,33.63
2018-11-23T06:41:18.115Z,33.38
2018-11-23T06:43:47.408Z,33.45
2018-11-23T06:46:16.177Z,33.57
2018-11-23T06:48:44.961Z,32.08
2018-11-23T06:51:13.741Z,32.28
2018-11-23T06:53:42.567Z,33.42
2018-11-23T06:56:11.311Z,32.20
2018-11-23T06:58:40.143Z,33.63
2018-11-23T07:01:08.918Z,32.78
2018-11-23T07:03:37.685Z,31.90
2018-11-23T07:06:06.473Z,32.45
2018-11-23T07:08:35.266Z,33.30
2018-11-23T07:11:04.197Z,32.65
2018-11-23T07:13:33.438Z,32.60
2018-11-23T07:16:02.242Z,31.57
2018-11-23T07:18:30.993Z,32.78
2018-11-23T07:20:59.782Z,32.50
2018-11-23T07:23:28.569Z,32.07
2018-11-23T07:25:57.357Z,30.82
2018-11-23T07:28:26.158Z,30.97
2018-11-23T07:30:58.337Z,32.25
2018-11-23T07:33:23.723Z,32.13
2018-11-23T07:35:52.542Z,31.17
2018-11-23T07:38:21.338Z,31.33
2018-11-23T07:41:01.638Z,31.87
2018-11-23T07:43:30.456Z,30.55
2018-11-23T07:45:59.248Z,31.20
2018-11-23T07:48:28.061Z,31.65
2018-11-23T07:50:56.837Z,31.25
2018-11-23T07:53:25.644Z,31.35
2018-11-23T07:55:54.417Z,30.72
2018-11-23T07:58:23.178Z,30.50
2018-11-23T08:00:51.954Z,30.60
2018-11-23T08:03:20.940Z,29.35
2018-11-23T08:05:49.698Z,29.12
2018-11-23T08:08:18.500Z,28.62
2018-11-23T08:10:46.534Z,28.07
2018-11-23T08:13:15.361Z,28.90
2018-11-23T08:15:44.147Z,28.35
2018-11-23T08:18:12.922Z,28.62
2018-11-23T08:20:41.757Z,29.00
2018-11-23T08:23:10.525Z,27.20
2018-11-23T08:25:39.344Z,27.07
2018-11-23T08:28:08.127Z,27.42
2018-11-23T08:30:36.942Z,27.33
2018-11-23T08:33:05.728Z,27.32
2018-11-23T08:35:34.530Z,28.50
2018-11-23T08:38:03.306Z,28.27
2018-11-23T08:40:32.067Z,27.73
2018-11-23T08:43:00.881Z,28.57
2018-11-23T08:45:29.688Z,29.63
2018-11-23T08:47:58.487Z,28.40
2018-11-23T08:50:28.725Z,28.10
2018-11-23T08:52:57.508Z,26.45
2018-11-23T08:55:26.721Z,27.17
2018-11-23T08:57:55.531Z,25.72
2018-11-23T09:00:26.324Z,25.95
2018-11-23T09:02:56.662Z,26.07
2018-11-23T09:05:25.454Z,26.30
2018-11-23T09:07:55.314Z,27.13
2018-11-23T09:10:26.526Z,26.70
2018-11-23T09:12:57.843Z,26.82
2018-11-23T09:15:26.612Z,27.65
2018-11-23T09:17:55.382Z,26.68
2018-11-23T09:20:24.191Z,27.45
2018-11-23T09:22:52.986Z,27.20
2018-11-23T09:25:22.632Z,26.23
2018-11-23T09:27:51.433Z,25.40
2018-11-23T09:30:22.597Z,26.57
2018-11-23T09:32:52.266Z,26.95
2018-11-23T09:35:21.088Z,26.00
2018-11-23T09:37:50.144Z,25.70
2018-11-23T09:40:20.296Z,26.45
2018-11-23T09:42:49.468Z,25.00
2018-11-23T09:45:20.413Z,25.83
2018-11-23T09:47:50.405Z,26.00
2018-11-23T09:50:20.446Z,26.15
2018-11-23T09:52:50.444Z,25.88
2018-11-23T09:55:19.860Z,25.43
2018-11-23T09:57:48.633Z,24.98
2018-11-23T10:00:20.818Z,25.40
2018-11-23T10:02:50.604Z,25.85
2018-11-23T10:05:19.778Z,25.35
2018-11-23T10:07:50.133Z,25.70
2018-11-23T10:10:19.864Z,25.40
2018-11-23T10:12:48.637Z,24.67
2018-11-23T10:15:18.265Z,25.02
2018-11-23T10:17:47.030Z,24.40
2018-11-23T10:20:17.621Z,24.85
2018-11-23T10:22:46.697Z,24.55
2018-11-23T10:25:17.013Z,24.95
2018-11-23T10:27:46.099Z,24.55
2018-11-23T10:30:17.107Z,25.72
2018-11-23T10:32:46.942Z,24.82
2018-11-23T10:35:15.721Z,24.75
2018-11-23T10:37:45.473Z,24.80
2018-11-23T10:40:16.090Z,24.80
2018-11-23T10:42:45.160Z,24.92
2018-11-23T10:45:15.809Z,24.63
2018-11-23T10:47:44.790Z,23.93
2018-11-23T10:50:15.522Z,23.57
2018-11-23T10:52:44.533Z,24.18
2018-11-23T10:55:15.745Z,24.27
2018-11-23T10:57:44.568Z,25.08
2018-11-23T11:00:19.649Z,24.55
2018-11-23T11:03:54.737Z,23.50
2018-11-23T11:06:28.988Z,23.83
2018-11-23T11:08:57.781Z,22.60
2018-11-23T11:11:26.569Z,24.25
2018-11-23T11:13:55.349Z,23.60
2018-11-23T11:16:24.142Z,23.07
2018-11-23T11:18:53.293Z,23.92
2018-11-23T11:21:22.071Z,23.73
2018-11-23T11:23:50.875Z,23.20
2018-11-23T11:26:19.650Z,23.62
2018-11-23T11:28:48.427Z,23.57
2018-11-23T11:31:17.301Z,22.02
2018-11-23T11:33:46.116Z,22.58
2018-11-23T11:36:14.901Z,22.57
2018-11-23T11:38:43.681Z,21.70
2018-11-23T11:41:12.467Z,21.93
2018-11-23T11:43:41.225Z,21.03
2018-11-23T11:46:10.472Z,21.40
2018-11-23T11:48:39.344Z,21.23
2018-11-23T11:51:08.696Z,20.70
2018-11-23T11:53:37.475Z,20.95
2018-11-23T11:56:06.850Z,20.50
2018-11-23T11:58:35.672Z,20.08
2018-11-23T12:01:04.840Z,21.00
2018-11-23T12:03:33.651Z,21.20
2018-11-23T12:06:02.405Z,20.10
2018-11-23T12:08:31.166Z,20.97
2018-11-23T12:10:59.969Z,20.53
2018-11-23T12:13:28.805Z,20.02
2018-11-23T12:15:57.593Z,19.80
2018-11-23T12:18:26.372Z,20.48
2018-11-23T12:20:55.186Z,21.17
2018-11-23T12:23:23.965Z,20.40
2018-11-23T12:25:53.369Z,20.57
2018-11-23T12:28:22.143Z,20.10
2018-11-23T12:30:50.948Z,20.17
2018-11-23T12:33:19.720Z,20.90
2018-11-23T12:35:48.524Z,19.45
2018-11-23T12:38:17.406Z,20.30
2018-11-23T12:40:46.209Z,20.03
2018-11-23T12:43:15.038Z,19.87
2018-11-23T12:45:43.829Z,19.80
2018-11-23T12:48:12.618Z,20.20
2018-11-23T12:50:41.463Z,20.48
2018-11-23T12:53:10.265Z,19.60
2018-11-23T12:55:39.068Z,19.77
2018-11-23T12:58:08.621Z,20.02
2018-11-23T13:00:37.422Z,19.67
2018-11-23T13:03:06.282Z,20.02
2018-11-23T13:05:35.688Z,20.50
2018-11-23T13:08:06.038Z,20.45
2018-11-23T13:10:34.867Z,19.60
2018-11-23T13:13:04.005Z,19.75
2018-11-23T13:15:32.816Z,20.15
2018-11-23T13:18:02.029Z,19.93
2018-11-23T13:20:30.864Z,19.77
2018-11-23T13:22:59.684Z,18.10
2018-11-23T13:25:30.805Z,18.12
2018-11-23T13:27:59.836Z,17.45
2018-11-23T13:30:31.063Z,17.80
2018-11-23T13:32:59.874Z,17.90
2018-11-23T13:35:28.636Z,18.15
2018-11-23T13:37:57.397Z,18.48
2018-11-23T13:40:27.251Z,18.15
2018-11-23T13:42:57.045Z,18.15
2018-11-23T13:45:27.302Z,17.57
2018-11-23T13:47:56.158Z,16.90
2018-11-23T13:50:25.576Z,17.15
2018-11-23T13:52:55.995Z,16.52
2018-11-23T13:55:24.818Z,16.93
2018-11-23T13:57:53.565Z,16.90
2018-11-23T14:00:25.521Z,17.02
2018-11-23T14:02:54.285Z,17.15
2018-11-23T14:05:27.626Z,17.30
2018-11-23T14:07:57.942Z,17.75
2018-11-23T14:10:27.537Z,17.40
2018-11-23T14:12:56.358Z,17.55
2018-11-23T14:15:27.507Z,17.32
2018-11-23T14:17:57.290Z,16.60
2018-11-23T14:20:26.692Z,16.70
2018-11-23T14:22:55.697Z,18.17
2018-11-23T14:25:26.613Z,16.37
2018-11-23T14:27:55.900Z,16.12
2018-11-23T14:30:26.320Z,16.45
2018-11-23T14:32:55.310Z,16.60
2018-11-23T14:35:25.657Z,16.45
2018-11-23T14:37:56.660Z,16.65
2018-11-23T14:40:25.413Z,17.17
2018-11-23T14:42:54.738Z,15.78
2018-11-23T14:45:32.886Z,16.90
2018-11-23T14:48:03.024Z,16.40
2018-11-23T14:50:32.976Z,17.00
2018-11-23T14:53:01.740Z,16.10
2018-11-23T14:55:30.866Z,15.17
2018-11-23T14:57:59.944Z,15.88
2018-11-23T15:00:35.348Z,15.63
2018-11-23T15:03:05.189Z,15.35
2018-11-23T15:05:34.272Z,15.25
2018-11-23T15:08:03.049Z,14.87
2018-11-23T15:10:32.879Z,15.28
2018-11-23T15:13:02.492Z,14.87
2018-11-23T15:15:34.650Z,15.55
2018-11-23T15:18:03.421Z,15.45
2018-11-23T15:20:36.856Z,15.90
2018-11-23T15:23:08.297Z,15.35
2018-11-23T15:25:37.057Z,15.08
2018-11-23T15:28:06.461Z,15.45
2018-11-23T15:30:36.284Z,15.35
2018-11-23T15:33:05.634Z,15.48
2018-11-23T15:35:35.481Z,15.10
2018-11-23T15:38:09.999Z,15.03
2018-11-23T15:40:33.569Z,15.08
2018-11-23T15:43:04.949Z,15.65
2018-11-23T15:45:34.561Z,15.60
2018-11-23T15:48:03.731Z,15.85
2018-11-23T15:50:33.982Z,15.53
2018-11-23T15:53:02.824Z,16.23
2018-11-23T15:55:33.063Z,16.82
2018-11-23T15:58:03.292Z,16.02
2018-11-23T16:00:34.437Z,16.40
2018-11-23T16:03:03.282Z,16.33
2018-11-23T16:05:32.093Z,15.90
2018-11-23T16:08:02.470Z,16.05
2018-11-23T16:10:33.481Z,16.20
2018-11-23T16:13:10.726Z,15.38
2018-11-23T16:15:32.516Z,15.30
2018-11-23T16:18:01.820Z,15.70
2018-11-23T16:20:34.825Z,15.20
2018-11-23T16:23:08.070Z,15.50
2018-11-23T16:25:36.904Z,15.68
2018-11-23T16:28:06.846Z,15.20
2018-11-23T16:30:37.210Z,15.57
2018-11-23T16:33:07.741Z,16.93
2018-11-23T16:35:37.705Z,16.27
2018-11-23T16:38:08.478Z,16.35
2018-11-23T16:40:38.829Z,16.80
2018-11-23T16:43:09.204Z,17.17
2018-11-23T16:45:38.631Z,16.42
2018-11-23T16:48:08.556Z,16.85
2018-11-23T16:50:37.366Z,16.35
2018-11-23T16:53:06.364Z,15.50
2018-11-23T16:56:11.579Z,15.50
2018-11-23T16:58:40.504Z,16.37
2018-11-23T17:01:09.978Z,16.93
2018-11-23T17:03:39.312Z,17.42
2018-11-23T17:06:08.677Z,16.70
2018-11-23T17:08:39.901Z,16.57
2018-11-23T17:11:06.274Z,16.97
2018-11-23T17:13:35.071Z,17.65
2018-11-23T17:16:03.977Z,17.77
2018-11-23T17:18:32.792Z,16.97
2018-11-23T17:21:01.605Z,18.62
2018-11-23T17:23:30.398Z,17.32
2018-11-23T17:25:59.158Z,17.15
2018-11-23T17:28:27.909Z,17.33
2018-11-23T17:30:56.666Z,17.55
2018-11-23T17:33:25.434Z,16.35
2018-11-23T17:35:54.198Z,18.00
2018-11-23T17:38:22.957Z,18.30
2018-11-23T17:40:51.716Z,18.92
2018-11-23T17:43:20.499Z,20.43
2018-11-23T17:45:49.324Z,19.07
2018-11-23T17:48:18.100Z,19.75
2018-11-23T17:50:46.893Z,19.17
2018-11-23T17:53:15.727Z,18.35
2018-11-23T17:55:44.524Z,18.75
2018-11-23T17:58:13.409Z,19.45
2018-11-23T18:00:42.221Z,19.77
2018-11-23T18:03:10.993Z,19.42
2018-11-23T18:05:39.786Z,20.05
2018-11-23T18:08:08.539Z,19.42
2018-11-23T18:10:37.317Z,18.12
2018-11-23T18:13:06.133Z,19.30
2018-11-23T18:15:35.566Z,19.35
2018-11-23T18:18:05.293Z,19.15
2018-11-23T18:20:34.477Z,18.75
2018-11-23T18:23:03.889Z,18.57
2018-11-23T18:25:34.438Z,19.00
2018-11-23T18:28:03.241Z,19.15
2018-11-23T18:30:33.651Z,18.42
2018-11-23T18:33:03.610Z,18.53
2018-11-23T18:35:32.370Z,18.13
2018-11-23T18:38:01.149Z,17.90
2018-11-23T18:40:36.972Z,19.17
2018-11-23T18:42:58.841Z,18.50
2018-11-23T18:45:27.721Z,18.65
2018-11-23T18:47:56.618Z,19.00
2018-11-23T18:50:25.374Z,18.30
2018-11-23T18:52:54.183Z,17.17
2018-11-23T18:55:22.924Z,19.48
2018-11-23T18:57:51.837Z,19.75
2018-11-23T19:00:20.625Z,19.23
2018-11-23T19:02:49.389Z,18.82
2018-11-23T19:05:21.555Z,18.98
2018-11-23T19:07:50.348Z,19.40
2018-11-23T19:10:19.122Z,19.50
2018-11-23T19:12:47.887Z,20.33
2018-11-23T19:15:20.169Z,18.57
2018-11-23T19:17:46.385Z,18.67
2018-11-23T19:20:16.157Z,18.98
2018-11-23T19:22:46.158Z,18.07
2018-11-23T19:25:15.000Z,18.20
2018-11-23T19:27:43.856Z,18.00
2018-11-23T19:30:13.933Z,17.48
2018-11-23T19:32:49.289Z,17.47
2018-11-23T19:35:18.110Z,17.37
2018-11-23T19:37:46.944Z,16.93
2018-11-23T19:40:16.093Z,18.97
2018-11-23T19:42:45.368Z,18.90
2018-11-23T19:45:16.096Z,18.30
2018-11-23T19:47:44.953Z,18.10
2018-11-23T19:50:15.800Z,17.20
2018-11-23T19:52:44.589Z,17.77
2018-11-23T19:55:14.377Z,17.60
2018-11-23T19:57:43.192Z,17.77
2018-11-23T20:00:15.393Z,20.30
2018-11-23T20:02:44.328Z,20.25
2018-11-23T20:05:13.173Z,18.25
2018-11-23T20:07:41.981Z,18.32
2018-11-23T20:10:13.428Z,17.92
2018-11-23T20:12:42.593Z,18.77
2018-11-23T20:15:13.791Z,18.80
2018-11-23T20:17:42.651Z,18.87
2018-11-23T20:20:12.548Z,19.15
2018-11-23T20:22:41.354Z,19.50
2018-11-23T20:25:12.518Z,19.70
2018-11-23T20:27:41.332Z,20.12
2018-11-23T20:30:12.309Z,19.57
2018-11-23T20:32:41.083Z,20.43
2018-11-23T20:35:12.142Z,19.65
2018-11-23T20:37:41.033Z,19.92
2018-11-23T20:40:13.026Z,20.05
2018-11-23T20:42:41.805Z,19.77
2018-11-23T20:45:11.548Z,19.95
2018-11-23T20:47:40.451Z,19.27
2018-11-23T20:50:10.414Z,20.40
2018-11-23T20:52:39.258Z,19.57
2018-11-23T20:55:18.925Z,20.10
2018-11-23T20:57:47.725Z,20.05
2018-11-23T21:00:23.190Z,19.52
2018-11-23T21:02:52.585Z,20.40
2018-11-23T21:05:21.986Z,20.62
2018-11-23T21:07:51.840Z,20.50
2018-11-23T21:10:23.663Z,20.87
2018-11-23T21:12:52.681Z,21.33
2018-11-23T21:15:26.598Z,21.55
2018-11-23T21:17:56.036Z,21.05
2018-11-23T21:20:24.817Z,21.35
2018-11-23T21:22:53.596Z,21.20
2018-11-23T21:25:22.380Z,22.50
2018-11-23T21:27:51.682Z,20.35
2018-11-23T21:30:22.336Z,21.30
2018-11-23T21:32:51.825Z,21.10
2018-11-23T21:35:20.629Z,21.55
2018-11-23T21:37:49.451Z,20.95
2018-11-23T21:40:18.200Z,21.23
2018-11-23T21:42:46.992Z,22.35
2018-11-23T21:45:16.706Z,20.07
2018-11-23T21:47:45.524Z,21.27
2018-11-23T21:50:16.150Z,20.97
2018-11-23T21:52:44.934Z,22.37
2018-11-23T21:55:16.920Z,22.35
2018-11-23T21:57:45.690Z,21.73
2018-11-23T22:00:15.147Z,23.00
2018-11-23T22:02:44.028Z,22.13
2018-11-23T22:05:12.834Z,22.40
2018-11-23T22:07:41.653Z,21.90
2018-11-23T22:10:13.180Z,20.65
2018-11-23T22:12:41.967Z,21.90
2018-11-23T22:15:13.101Z,22.95
2018-11-23T22:17:41.897Z,22.75
2018-11-23T22:20:18.691Z,23.20
2018-11-23T22:22:47.470Z,22.25
2018-11-23T22:25:17.486Z,23.22
2018-11-23T22:27:46.370Z,23.10
2018-11-23T22:30:19.577Z,23.50
2018-11-23T22:32:48.339Z,22.37
2018-11-23T22:35:17.225Z,22.97
2018-11-23T22:37:45.989Z,22.60
2018-11-23T22:40:15.954Z,23.07
2018-11-23T22:42:46.850Z,22.62
2018-11-23T22:45:16.186Z,22.93
2018-11-23T22:47:45.034Z,22.65
2018-11-23T22:50:18.171Z,22.35
2018-11-23T22:52:47.787Z,22.95
2018-11-23T22:55:16.390Z,23.98
2018-11-23T22:57:45.178Z,23.90
2018-11-23T23:00:21.288Z,23.30
2018-11-23T23:02:50.368Z,23.27
2018-11-23T23:05:20.317Z,22.82
2018-11-23T23:07:49.101Z,23.40
2018-11-23T23:10:17.950Z,24.25
2018-11-23T23:12:46.749Z,23.38
2018-11-23T23:15:15.549Z,23.33
2018-11-23T23:17:44.471Z,22.67
2018-11-23T23:20:15.633Z,23.80
2018-11-23T23:22:44.389Z,23.47
2018-11-23T23:25:13.502Z,24.05
2018-11-23T23:27:42.301Z,23.95
2018-11-23T23:35:12.578Z,23.98
2018-11-23T23:37:41.621Z,24.45
2018-11-23T23:40:12.389Z,23.80
2018-11-23T23:42:41.191Z,22.70
2018-11-23T23:45:10.894Z,24.27
2018-11-23T23:47:39.714Z,24.20
2018-11-23T23:50:11.662Z,25.68
2018-11-23T23:52:40.469Z,24.50
2018-11-23T23:55:09.813Z,23.38
2018-11-23T23:57:39.312Z,24.82
